sensor_id;sensor_type;location;lat;lon;timestamp;pressure;altitude;pressure_sealevel;temperature
19282;BMP180;9774;52.034;5.342;2024-03-08T00:02:35;101687.00;;;9.70
19282;BMP180;9774;52.034;5.342;2024-03-08T00:05:04;101685.00;;;9.70
19282;BMP180;9774;52.034;5.342;2024-03-08T00:07:33;101684.00;;;9.70
19282;BMP180;9774;52.034;5.342;2024-03-08T00:10:00;101679.00;;;9.70
19282;BMP180;9774;52.034;5.342;2024-03-08T00:12:27;101676.00;;;9.70
19282;BMP180;9774;52.034;5.342;2024-03-08T00:14:54;101668.00;;;9.60
19282;BMP180;9774;52.034;5.342;2024-03-08T00:17:21;101659.00;;;9.60
19282;BMP180;9774;52.034;5.342;2024-03-08T00:19:49;101670.00;;;9.60
19282;BMP180;9774;52.034;5.342;2024-03-08T00:22:16;101676.00;;;9.60
19282;BMP180;9774;52.034;5.342;2024-03-08T00:24:46;101666.00;;;9.50
19282;BMP180;9774;52.034;5.342;2024-03-08T00:27:13;101663.00;;;9.50
19282;BMP180;9774;52.034;5.342;2024-03-08T00:29:41;101658.00;;;9.50
19282;BMP180;9774;52.034;5.342;2024-03-08T00:32:08;101659.00;;;9.50
19282;BMP180;9774;52.034;5.342;2024-03-08T00:34:36;101658.00;;;9.50
19282;BMP180;9774;52.034;5.342;2024-03-08T00:37:04;101657.00;;;9.50
19282;BMP180;9774;52.034;5.342;2024-03-08T00:39:31;101649.00;;;9.40
19282;BMP180;9774;52.034;5.342;2024-03-08T00:41:59;101649.00;;;9.40
19282;BMP180;9774;52.034;5.342;2024-03-08T00:44:26;101656.00;;;9.40
19282;BMP180;9774;52.034;5.342;2024-03-08T00:46:54;101643.00;;;9.40
19282;BMP180;9774;52.034;5.342;2024-03-08T00:49:21;101643.00;;;9.30
19282;BMP180;9774;52.034;5.342;2024-03-08T00:51:48;101648.00;;;9.30
19282;BMP180;9774;52.034;5.342;2024-03-08T00:54:15;101631.00;;;9.30
19282;BMP180;9774;52.034;5.342;2024-03-08T00:56:43;101629.00;;;9.30
19282;BMP180;9774;52.034;5.342;2024-03-08T00:59:13;101629.00;;;9.20
19282;BMP180;9774;52.034;5.342;2024-03-08T01:01:41;101618.00;;;9.30
19282;BMP180;9774;52.034;5.342;2024-03-08T01:04:10;101618.00;;;9.20
19282;BMP180;9774;52.034;5.342;2024-03-08T01:06:37;101618.00;;;9.20
19282;BMP180;9774;52.034;5.342;2024-03-08T01:09:05;101604.00;;;9.20
19282;BMP180;9774;52.034;5.342;2024-03-08T01:11:34;101606.00;;;9.10
19282;BMP180;9774;52.034;5.342;2024-03-08T01:14:01;101601.00;;;9.10
19282;BMP180;9774;52.034;5.342;2024-03-08T01:16:30;101608.00;;;9.10
19282;BMP180;9774;52.034;5.342;2024-03-08T01:18:59;101602.00;;;9.10
19282;BMP180;9774;52.034;5.342;2024-03-08T01:21:26;101599.00;;;9.10
19282;BMP180;9774;52.034;5.342;2024-03-08T01:23:53;101590.00;;;9.00
19282;BMP180;9774;52.034;5.342;2024-03-08T01:26:20;101578.00;;;9.00
19282;BMP180;9774;52.034;5.342;2024-03-08T01:28:47;101578.00;;;9.00
19282;BMP180;9774;52.034;5.342;2024-03-08T01:31:14;101585.00;;;9.00
19282;BMP180;9774;52.034;5.342;2024-03-08T01:33:43;101580.00;;;8.90
19282;BMP180;9774;52.034;5.342;2024-03-08T01:36:10;101583.00;;;8.90
19282;BMP180;9774;52.034;5.342;2024-03-08T01:38:41;101582.00;;;8.90
19282;BMP180;9774;52.034;5.342;2024-03-08T01:41:08;101575.00;;;8.90
19282;BMP180;9774;52.034;5.342;2024-03-08T01:43:35;101574.00;;;8.90
19282;BMP180;9774;52.034;5.342;2024-03-08T01:46:03;101571.00;;;8.80
19282;BMP180;9774;52.034;5.342;2024-03-08T01:48:31;101576.00;;;8.80
19282;BMP180;9774;52.034;5.342;2024-03-08T01:51:00;101567.00;;;8.80
19282;BMP180;9774;52.034;5.342;2024-03-08T01:53:29;101567.00;;;8.70
19282;BMP180;9774;52.034;5.342;2024-03-08T01:55:58;101567.00;;;8.70
19282;BMP180;9774;52.034;5.342;2024-03-08T01:58:27;101567.00;;;8.70
19282;BMP180;9774;52.034;5.342;2024-03-08T02:00:57;101559.00;;;8.70
19282;BMP180;9774;52.034;5.342;2024-03-08T02:03:24;101555.00;;;8.70
19282;BMP180;9774;52.034;5.342;2024-03-08T02:05:51;101552.00;;;8.70
19282;BMP180;9774;52.034;5.342;2024-03-08T02:08:22;101558.00;;;8.60
19282;BMP180;9774;52.034;5.342;2024-03-08T02:10:49;101544.00;;;8.60
19282;BMP180;9774;52.034;5.342;2024-03-08T02:13:17;101548.00;;;8.60
19282;BMP180;9774;52.034;5.342;2024-03-08T02:15:55;101538.00;;;8.50
19282;BMP180;9774;52.034;5.342;2024-03-08T02:18:23;101540.00;;;8.60
19282;BMP180;9774;52.034;5.342;2024-03-08T02:20:52;101537.00;;;8.50
19282;BMP180;9774;52.034;5.342;2024-03-08T02:23:20;101540.00;;;8.50
19282;BMP180;9774;52.034;5.342;2024-03-08T02:25:47;101526.00;;;8.50
19282;BMP180;9774;52.034;5.342;2024-03-08T02:28:15;101529.00;;;8.40
19282;BMP180;9774;52.034;5.342;2024-03-08T02:30:44;101518.00;;;8.40
19282;BMP180;9774;52.034;5.342;2024-03-08T02:33:15;101524.00;;;8.40
19282;BMP180;9774;52.034;5.342;2024-03-08T02:35:43;101523.00;;;8.40
19282;BMP180;9774;52.034;5.342;2024-03-08T02:38:13;101518.00;;;8.40
19282;BMP180;9774;52.034;5.342;2024-03-08T02:40:42;101514.00;;;8.40
19282;BMP180;9774;52.034;5.342;2024-03-08T02:43:09;101507.00;;;8.30
19282;BMP180;9774;52.034;5.342;2024-03-08T02:45:37;101497.00;;;8.30
19282;BMP180;9774;52.034;5.342;2024-03-08T02:48:05;101501.00;;;8.30
19282;BMP180;9774;52.034;5.342;2024-03-08T02:50:33;101496.00;;;8.30
19282;BMP180;9774;52.034;5.342;2024-03-08T02:53:00;101503.00;;;8.30
19282;BMP180;9774;52.034;5.342;2024-03-08T02:55:29;101498.00;;;8.20
19282;BMP180;9774;52.034;5.342;2024-03-08T02:57:56;101497.00;;;8.20
19282;BMP180;9774;52.034;5.342;2024-03-08T03:00:25;101492.00;;;8.20
19282;BMP180;9774;52.034;5.342;2024-03-08T03:02:52;101494.00;;;8.20
19282;BMP180;9774;52.034;5.342;2024-03-08T03:05:19;101493.00;;;8.20
19282;BMP180;9774;52.034;5.342;2024-03-08T03:07:47;101482.00;;;8.20
19282;BMP180;9774;52.034;5.342;2024-03-08T03:10:15;101481.00;;;8.20
19282;BMP180;9774;52.034;5.342;2024-03-08T03:12:45;101476.00;;;8.10
19282;BMP180;9774;52.034;5.342;2024-03-08T03:15:15;101473.00;;;8.10
19282;BMP180;9774;52.034;5.342;2024-03-08T03:17:46;101477.00;;;8.10
19282;BMP180;9774;52.034;5.342;2024-03-08T03:20:14;101472.00;;;8.10
19282;BMP180;9774;52.034;5.342;2024-03-08T03:22:49;101479.00;;;8.10
19282;BMP180;9774;52.034;5.342;2024-03-08T03:25:18;101471.00;;;8.10
19282;BMP180;9774;52.034;5.342;2024-03-08T03:27:52;101464.00;;;8.00
19282;BMP180;9774;52.034;5.342;2024-03-08T03:30:22;101463.00;;;8.00
19282;BMP180;9774;52.034;5.342;2024-03-08T03:32:52;101468.00;;;8.00
19282;BMP180;9774;52.034;5.342;2024-03-08T03:35:21;101471.00;;;8.00
19282;BMP180;9774;52.034;5.342;2024-03-08T03:37:49;101461.00;;;8.00
19282;BMP180;9774;52.034;5.342;2024-03-08T03:40:27;101459.00;;;8.00
19282;BMP180;9774;52.034;5.342;2024-03-08T03:42:56;101446.00;;;8.00
19282;BMP180;9774;52.034;5.342;2024-03-08T03:45:24;101455.00;;;7.90
19282;BMP180;9774;52.034;5.342;2024-03-08T03:47:51;101453.00;;;7.90
19282;BMP180;9774;52.034;5.342;2024-03-08T03:50:18;101457.00;;;7.90
19282;BMP180;9774;52.034;5.342;2024-03-08T03:52:49;101448.00;;;7.90
19282;BMP180;9774;52.034;5.342;2024-03-08T03:55:16;101449.00;;;7.90
19282;BMP180;9774;52.034;5.342;2024-03-08T03:57:43;101451.00;;;7.90
19282;BMP180;9774;52.034;5.342;2024-03-08T04:00:13;101443.00;;;7.90
19282;BMP180;9774;52.034;5.342;2024-03-08T04:02:41;101456.00;;;7.90
19282;BMP180;9774;52.034;5.342;2024-03-08T04:05:09;101448.00;;;7.80
19282;BMP180;9774;52.034;5.342;2024-03-08T04:07:38;101447.00;;;7.80
19282;BMP180;9774;52.034;5.342;2024-03-08T04:10:08;101439.00;;;7.80
19282;BMP180;9774;52.034;5.342;2024-03-08T04:12:37;101439.00;;;7.80
19282;BMP180;9774;52.034;5.342;2024-03-08T04:15:05;101437.00;;;7.80
19282;BMP180;9774;52.034;5.342;2024-03-08T04:17:34;101432.00;;;7.80
19282;BMP180;9774;52.034;5.342;2024-03-08T04:20:03;101422.00;;;7.80
19282;BMP180;9774;52.034;5.342;2024-03-08T04:22:34;101433.00;;;7.80
19282;BMP180;9774;52.034;5.342;2024-03-08T04:25:02;101428.00;;;7.80
19282;BMP180;9774;52.034;5.342;2024-03-08T04:27:29;101435.00;;;7.80
19282;BMP180;9774;52.034;5.342;2024-03-08T04:29:56;101429.00;;;7.70
19282;BMP180;9774;52.034;5.342;2024-03-08T04:32:23;101432.00;;;7.80
19282;BMP180;9774;52.034;5.342;2024-03-08T04:34:51;101428.00;;;7.70
19282;BMP180;9774;52.034;5.342;2024-03-08T04:37:18;101425.00;;;7.70
19282;BMP180;9774;52.034;5.342;2024-03-08T04:39:47;101432.00;;;7.70
19282;BMP180;9774;52.034;5.342;2024-03-08T04:42:15;101425.00;;;7.70
19282;BMP180;9774;52.034;5.342;2024-03-08T04:44:43;101420.00;;;7.70
19282;BMP180;9774;52.034;5.342;2024-03-08T04:47:11;101422.00;;;7.70
19282;BMP180;9774;52.034;5.342;2024-03-08T04:49:38;101414.00;;;7.70
19282;BMP180;9774;52.034;5.342;2024-03-08T04:52:07;101405.00;;;7.70
19282;BMP180;9774;52.034;5.342;2024-03-08T04:54:34;101419.00;;;7.70
19282;BMP180;9774;52.034;5.342;2024-03-08T04:57:01;101408.00;;;7.70
19282;BMP180;9774;52.034;5.342;2024-03-08T04:59:28;101401.00;;;7.70
19282;BMP180;9774;52.034;5.342;2024-03-08T05:01:55;101403.00;;;7.70
19282;BMP180;9774;52.034;5.342;2024-03-08T05:04:22;101413.00;;;7.70
19282;BMP180;9774;52.034;5.342;2024-03-08T05:06:49;101401.00;;;7.70
19282;BMP180;9774;52.034;5.342;2024-03-08T05:09:18;101408.00;;;7.60
19282;BMP180;9774;52.034;5.342;2024-03-08T05:11:46;101408.00;;;7.70
19282;BMP180;9774;52.034;5.342;2024-03-08T05:14:14;101404.00;;;7.70
19282;BMP180;9774;52.034;5.342;2024-03-08T05:16:42;101399.00;;;7.60
19282;BMP180;9774;52.034;5.342;2024-03-08T05:19:14;101397.00;;;7.60
19282;BMP180;9774;52.034;5.342;2024-03-08T05:21:42;101394.00;;;7.60
19282;BMP180;9774;52.034;5.342;2024-03-08T05:24:10;101398.00;;;7.60
19282;BMP180;9774;52.034;5.342;2024-03-08T05:26:39;101396.00;;;7.60
19282;BMP180;9774;52.034;5.342;2024-03-08T05:29:06;101396.00;;;7.60
19282;BMP180;9774;52.034;5.342;2024-03-08T05:31:45;101393.00;;;7.60
19282;BMP180;9774;52.034;5.342;2024-03-08T05:34:12;101394.00;;;7.60
19282;BMP180;9774;52.034;5.342;2024-03-08T05:36:40;101392.00;;;7.60
19282;BMP180;9774;52.034;5.342;2024-03-08T05:39:07;101398.00;;;7.60
19282;BMP180;9774;52.034;5.342;2024-03-08T05:41:34;101390.00;;;7.60
19282;BMP180;9774;52.034;5.342;2024-03-08T05:44:02;101389.00;;;7.60
19282;BMP180;9774;52.034;5.342;2024-03-08T05:46:29;101394.00;;;7.50
19282;BMP180;9774;52.034;5.342;2024-03-08T05:48:57;101391.00;;;7.60
19282;BMP180;9774;52.034;5.342;2024-03-08T05:51:25;101381.00;;;7.60
19282;BMP180;9774;52.034;5.342;2024-03-08T05:53:53;101384.00;;;7.60
19282;BMP180;9774;52.034;5.342;2024-03-08T05:56:22;101380.00;;;7.60
19282;BMP180;9774;52.034;5.342;2024-03-08T05:58:49;101380.00;;;7.50
19282;BMP180;9774;52.034;5.342;2024-03-08T06:01:18;101363.00;;;7.50
19282;BMP180;9774;52.034;5.342;2024-03-08T06:03:45;101364.00;;;7.50
19282;BMP180;9774;52.034;5.342;2024-03-08T06:06:14;101361.00;;;7.50
19282;BMP180;9774;52.034;5.342;2024-03-08T06:08:43;101365.00;;;7.50
19282;BMP180;9774;52.034;5.342;2024-03-08T06:11:10;101362.00;;;7.50
19282;BMP180;9774;52.034;5.342;2024-03-08T06:13:37;101360.00;;;7.50
19282;BMP180;9774;52.034;5.342;2024-03-08T06:16:05;101355.00;;;7.50
19282;BMP180;9774;52.034;5.342;2024-03-08T06:18:35;101352.00;;;7.50
19282;BMP180;9774;52.034;5.342;2024-03-08T06:21:03;101358.00;;;7.50
19282;BMP180;9774;52.034;5.342;2024-03-08T06:23:31;101362.00;;;7.50
19282;BMP180;9774;52.034;5.342;2024-03-08T06:25:58;101351.00;;;7.40
19282;BMP180;9774;52.034;5.342;2024-03-08T06:28:26;101355.00;;;7.50
19282;BMP180;9774;52.034;5.342;2024-03-08T06:30:54;101351.00;;;7.50
19282;BMP180;9774;52.034;5.342;2024-03-08T06:33:23;101359.00;;;7.50
19282;BMP180;9774;52.034;5.342;2024-03-08T06:35:53;101351.00;;;7.50
19282;BMP180;9774;52.034;5.342;2024-03-08T06:38:23;101360.00;;;7.50
19282;BMP180;9774;52.034;5.342;2024-03-08T06:40:50;101355.00;;;7.50
19282;BMP180;9774;52.034;5.342;2024-03-08T06:43:17;101349.00;;;7.50
19282;BMP180;9774;52.034;5.342;2024-03-08T06:45:44;101346.00;;;7.50
19282;BMP180;9774;52.034;5.342;2024-03-08T06:48:14;101352.00;;;7.50
19282;BMP180;9774;52.034;5.342;2024-03-08T06:50:43;101346.00;;;7.60
19282;BMP180;9774;52.034;5.342;2024-03-08T06:53:12;101346.00;;;7.50
19282;BMP180;9774;52.034;5.342;2024-03-08T06:55:39;101342.00;;;7.60
19282;BMP180;9774;52.034;5.342;2024-03-08T06:58:06;101343.00;;;7.60
19282;BMP180;9774;52.034;5.342;2024-03-08T07:00:33;101349.00;;;7.60
19282;BMP180;9774;52.034;5.342;2024-03-08T07:03:02;101350.00;;;7.70
19282;BMP180;9774;52.034;5.342;2024-03-08T07:05:30;101343.00;;;7.70
19282;BMP180;9774;52.034;5.342;2024-03-08T07:07:58;101336.00;;;7.80
19282;BMP180;9774;52.034;5.342;2024-03-08T07:10:27;101338.00;;;7.80
19282;BMP180;9774;52.034;5.342;2024-03-08T07:13:00;101339.00;;;7.80
19282;BMP180;9774;52.034;5.342;2024-03-08T07:15:28;101341.00;;;7.90
19282;BMP180;9774;52.034;5.342;2024-03-08T07:17:56;101341.00;;;7.90
19282;BMP180;9774;52.034;5.342;2024-03-08T07:20:23;101340.00;;;7.90
19282;BMP180;9774;52.034;5.342;2024-03-08T07:22:50;101331.00;;;8.00
19282;BMP180;9774;52.034;5.342;2024-03-08T07:25:17;101326.00;;;8.00
19282;BMP180;9774;52.034;5.342;2024-03-08T07:27:51;101327.00;;;8.00
19282;BMP180;9774;52.034;5.342;2024-03-08T07:30:18;101320.00;;;8.10
19282;BMP180;9774;52.034;5.342;2024-03-08T07:33:04;101318.00;;;8.20
19282;BMP180;9774;52.034;5.342;2024-03-08T07:35:33;101316.00;;;8.20
19282;BMP180;9774;52.034;5.342;2024-03-08T07:38:03;101321.00;;;8.20
19282;BMP180;9774;52.034;5.342;2024-03-08T07:40:31;101313.00;;;8.30
19282;BMP180;9774;52.034;5.342;2024-03-08T07:43:00;101314.00;;;8.30
19282;BMP180;9774;52.034;5.342;2024-03-08T07:45:28;101318.00;;;8.40
19282;BMP180;9774;52.034;5.342;2024-03-08T07:47:56;101314.00;;;8.40
19282;BMP180;9774;52.034;5.342;2024-03-08T07:50:26;101306.00;;;8.50
19282;BMP180;9774;52.034;5.342;2024-03-08T07:52:53;101304.00;;;8.60
19282;BMP180;9774;52.034;5.342;2024-03-08T07:55:20;101306.00;;;8.60
19282;BMP180;9774;52.034;5.342;2024-03-08T07:57:50;101297.00;;;8.70
19282;BMP180;9774;52.034;5.342;2024-03-08T08:00:18;101303.00;;;8.70
19282;BMP180;9774;52.034;5.342;2024-03-08T08:02:45;101301.00;;;8.80
19282;BMP180;9774;52.034;5.342;2024-03-08T08:05:15;101298.00;;;8.80
19282;BMP180;9774;52.034;5.342;2024-03-08T08:07:45;101298.00;;;8.90
19282;BMP180;9774;52.034;5.342;2024-03-08T08:10:12;101292.00;;;8.90
19282;BMP180;9774;52.034;5.342;2024-03-08T08:12:44;101299.00;;;9.00
19282;BMP180;9774;52.034;5.342;2024-03-08T08:15:12;101298.00;;;9.10
19282;BMP180;9774;52.034;5.342;2024-03-08T08:17:42;101290.00;;;9.10
19282;BMP180;9774;52.034;5.342;2024-03-08T08:20:10;101288.00;;;9.20
19282;BMP180;9774;52.034;5.342;2024-03-08T08:22:39;101286.00;;;9.20
19282;BMP180;9774;52.034;5.342;2024-03-08T08:25:07;101275.00;;;9.30
19282;BMP180;9774;52.034;5.342;2024-03-08T08:27:34;101274.00;;;9.40
19282;BMP180;9774;52.034;5.342;2024-03-08T08:30:03;101278.00;;;9.40
19282;BMP180;9774;52.034;5.342;2024-03-08T08:32:34;101275.00;;;9.50
19282;BMP180;9774;52.034;5.342;2024-03-08T08:35:05;101270.00;;;9.50
19282;BMP180;9774;52.034;5.342;2024-03-08T08:37:33;101266.00;;;9.60
19282;BMP180;9774;52.034;5.342;2024-03-08T08:40:01;101258.00;;;9.70
19282;BMP180;9774;52.034;5.342;2024-03-08T08:42:31;101262.00;;;9.80
19282;BMP180;9774;52.034;5.342;2024-03-08T08:44:58;101256.00;;;9.90
19282;BMP180;9774;52.034;5.342;2024-03-08T08:47:26;101251.00;;;9.90
19282;BMP180;9774;52.034;5.342;2024-03-08T08:49:53;101252.00;;;10.00
19282;BMP180;9774;52.034;5.342;2024-03-08T08:52:22;101251.00;;;10.10
19282;BMP180;9774;52.034;5.342;2024-03-08T08:54:49;101243.00;;;10.20
19282;BMP180;9774;52.034;5.342;2024-03-08T08:57:16;101247.00;;;10.20
19282;BMP180;9774;52.034;5.342;2024-03-08T08:59:43;101239.00;;;10.30
19282;BMP180;9774;52.034;5.342;2024-03-08T09:02:11;101236.00;;;10.40
19282;BMP180;9774;52.034;5.342;2024-03-08T09:04:38;101228.00;;;10.40
19282;BMP180;9774;52.034;5.342;2024-03-08T09:07:05;101226.00;;;10.50
19282;BMP180;9774;52.034;5.342;2024-03-08T09:09:34;101227.00;;;10.60
19282;BMP180;9774;52.034;5.342;2024-03-08T09:12:02;101228.00;;;10.70
19282;BMP180;9774;52.034;5.342;2024-03-08T09:14:29;101221.00;;;10.70
19282;BMP180;9774;52.034;5.342;2024-03-08T09:16:56;101225.00;;;10.80
19282;BMP180;9774;52.034;5.342;2024-03-08T09:19:23;101206.00;;;10.90
19282;BMP180;9774;52.034;5.342;2024-03-08T09:21:51;101214.00;;;11.00
19282;BMP180;9774;52.034;5.342;2024-03-08T09:24:18;101210.00;;;11.10
19282;BMP180;9774;52.034;5.342;2024-03-08T09:26:47;101208.00;;;11.20
19282;BMP180;9774;52.034;5.342;2024-03-08T09:29:14;101207.00;;;11.30
19282;BMP180;9774;52.034;5.342;2024-03-08T09:31:41;101202.00;;;11.40
19282;BMP180;9774;52.034;5.342;2024-03-08T09:34:09;101200.00;;;11.50
19282;BMP180;9774;52.034;5.342;2024-03-08T09:36:36;101192.00;;;11.60
19282;BMP180;9774;52.034;5.342;2024-03-08T09:39:03;101189.00;;;11.70
19282;BMP180;9774;52.034;5.342;2024-03-08T09:41:33;101187.00;;;11.80
19282;BMP180;9774;52.034;5.342;2024-03-08T09:44:03;101186.00;;;11.80
19282;BMP180;9774;52.034;5.342;2024-03-08T09:46:31;101178.00;;;12.00
19282;BMP180;9774;52.034;5.342;2024-03-08T09:48:58;101182.00;;;12.10
19282;BMP180;9774;52.034;5.342;2024-03-08T09:51:28;101166.00;;;12.10
19282;BMP180;9774;52.034;5.342;2024-03-08T09:53:56;101173.00;;;12.30
19282;BMP180;9774;52.034;5.342;2024-03-08T09:56:26;101164.00;;;12.40
19282;BMP180;9774;52.034;5.342;2024-03-08T09:58:54;101167.00;;;12.50
19282;BMP180;9774;52.034;5.342;2024-03-08T10:01:45;101173.00;;;12.60
19282;BMP180;9774;52.034;5.342;2024-03-08T10:04:12;101155.00;;;12.60
19282;BMP180;9774;52.034;5.342;2024-03-08T10:06:40;101149.00;;;12.70
19282;BMP180;9774;52.034;5.342;2024-03-08T10:09:07;101152.00;;;12.80
19282;BMP180;9774;52.034;5.342;2024-03-08T10:11:36;101142.00;;;12.90
19282;BMP180;9774;52.034;5.342;2024-03-08T10:14:05;101145.00;;;13.00
19282;BMP180;9774;52.034;5.342;2024-03-08T10:16:33;101127.00;;;13.10
19282;BMP180;9774;52.034;5.342;2024-03-08T10:19:02;101123.00;;;13.20
19282;BMP180;9774;52.034;5.342;2024-03-08T10:21:32;101123.00;;;13.30
19282;BMP180;9774;52.034;5.342;2024-03-08T10:23:59;101113.00;;;13.40
19282;BMP180;9774;52.034;5.342;2024-03-08T10:26:30;101122.00;;;13.50
19282;BMP180;9774;52.034;5.342;2024-03-08T10:28:57;101109.00;;;13.60
19282;BMP180;9774;52.034;5.342;2024-03-08T10:31:25;101108.00;;;13.60
19282;BMP180;9774;52.034;5.342;2024-03-08T10:33:52;101110.00;;;13.70
19282;BMP180;9774;52.034;5.342;2024-03-08T10:36:21;101093.00;;;13.80
19282;BMP180;9774;52.034;5.342;2024-03-08T10:38:52;101099.00;;;13.80
19282;BMP180;9774;52.034;5.342;2024-03-08T10:41:23;101095.00;;;13.90
19282;BMP180;9774;52.034;5.342;2024-03-08T10:44:10;101089.00;;;13.90
19282;BMP180;9774;52.034;5.342;2024-03-08T10:46:58;101077.00;;;14.00
19282;BMP180;9774;52.034;5.342;2024-03-08T10:49:32;101085.00;;;14.20
19282;BMP180;9774;52.034;5.342;2024-03-08T10:52:03;101083.00;;;14.20
19282;BMP180;9774;52.034;5.342;2024-03-08T10:54:33;101075.00;;;14.30
19282;BMP180;9774;52.034;5.342;2024-03-08T10:57:03;101065.00;;;14.30
19282;BMP180;9774;52.034;5.342;2024-03-08T10:59:34;101060.00;;;14.40
19282;BMP180;9774;52.034;5.342;2024-03-08T11:02:02;101046.00;;;14.50
19282;BMP180;9774;52.034;5.342;2024-03-08T11:04:31;101038.00;;;14.60
19282;BMP180;9774;52.034;5.342;2024-03-08T11:07:03;101045.00;;;14.60
19282;BMP180;9774;52.034;5.342;2024-03-08T11:09:35;101045.00;;;14.70
19282;BMP180;9774;52.034;5.342;2024-03-08T11:12:23;101032.00;;;14.60
19282;BMP180;9774;52.034;5.342;2024-03-08T11:14:56;101019.00;;;14.80
19282;BMP180;9774;52.034;5.342;2024-03-08T11:17:44;101015.00;;;14.80
19282;BMP180;9774;52.034;5.342;2024-03-08T11:20:13;101011.00;;;14.90
19282;BMP180;9774;52.034;5.342;2024-03-08T11:22:49;101000.00;;;14.90
19282;BMP180;9774;52.034;5.342;2024-03-08T11:25:34;100994.00;;;15.00
19282;BMP180;9774;52.034;5.342;2024-03-08T11:28:12;100991.00;;;15.10
19282;BMP180;9774;52.034;5.342;2024-03-08T11:30:45;100992.00;;;15.20
19282;BMP180;9774;52.034;5.342;2024-03-08T11:33:15;100990.00;;;15.30
19282;BMP180;9774;52.034;5.342;2024-03-08T11:35:42;100984.00;;;15.40
19282;BMP180;9774;52.034;5.342;2024-03-08T11:38:13;100977.00;;;15.50
19282;BMP180;9774;52.034;5.342;2024-03-08T11:40:42;100968.00;;;15.60
19282;BMP180;9774;52.034;5.342;2024-03-08T11:43:09;100976.00;;;15.70
19282;BMP180;9774;52.034;5.342;2024-03-08T11:45:37;100959.00;;;15.80
19282;BMP180;9774;52.034;5.342;2024-03-08T11:48:06;100960.00;;;15.90
19282;BMP180;9774;52.034;5.342;2024-03-08T11:50:33;100964.00;;;16.00
19282;BMP180;9774;52.034;5.342;2024-03-08T11:53:04;100970.00;;;16.00
19282;BMP180;9774;52.034;5.342;2024-03-08T11:55:33;100944.00;;;16.00
19282;BMP180;9774;52.034;5.342;2024-03-08T11:58:05;100949.00;;;16.10
19282;BMP180;9774;52.034;5.342;2024-03-08T12:00:34;100959.00;;;16.20
19282;BMP180;9774;52.034;5.342;2024-03-08T12:03:05;100949.00;;;16.20
19282;BMP180;9774;52.034;5.342;2024-03-08T12:05:34;100942.00;;;16.30
19282;BMP180;9774;52.034;5.342;2024-03-08T12:08:02;100940.00;;;16.30
19282;BMP180;9774;52.034;5.342;2024-03-08T12:10:32;100944.00;;;16.30
19282;BMP180;9774;52.034;5.342;2024-03-08T12:13:00;100931.00;;;16.30
19282;BMP180;9774;52.034;5.342;2024-03-08T12:15:30;100914.00;;;16.40
19282;BMP180;9774;52.034;5.342;2024-03-08T12:17:59;100923.00;;;16.40
19282;BMP180;9774;52.034;5.342;2024-03-08T12:20:28;100916.00;;;16.40
19282;BMP180;9774;52.034;5.342;2024-03-08T12:23:03;100917.00;;;16.40
19282;BMP180;9774;52.034;5.342;2024-03-08T12:25:33;100921.00;;;16.50
19282;BMP180;9774;52.034;5.342;2024-03-08T12:28:08;100911.00;;;16.50
19282;BMP180;9774;52.034;5.342;2024-03-08T12:30:46;100907.00;;;16.50
19282;BMP180;9774;52.034;5.342;2024-03-08T12:33:15;100912.00;;;16.60
19282;BMP180;9774;52.034;5.342;2024-03-08T12:35:51;100900.00;;;16.60
19282;BMP180;9774;52.034;5.342;2024-03-08T12:38:21;100908.00;;;16.70
19282;BMP180;9774;52.034;5.342;2024-03-08T12:40:55;100894.00;;;16.60
19282;BMP180;9774;52.034;5.342;2024-03-08T12:43:23;100889.00;;;16.70
19282;BMP180;9774;52.034;5.342;2024-03-08T12:45:50;100881.00;;;16.80
19282;BMP180;9774;52.034;5.342;2024-03-08T12:48:18;100881.00;;;16.80
19282;BMP180;9774;52.034;5.342;2024-03-08T12:50:46;100884.00;;;16.90
19282;BMP180;9774;52.034;5.342;2024-03-08T12:53:14;100890.00;;;16.90
19282;BMP180;9774;52.034;5.342;2024-03-08T12:55:42;100879.00;;;17.00
19282;BMP180;9774;52.034;5.342;2024-03-08T12:58:10;100882.00;;;17.00
19282;BMP180;9774;52.034;5.342;2024-03-08T13:00:37;100872.00;;;17.10
19282;BMP180;9774;52.034;5.342;2024-03-08T13:03:08;100876.00;;;17.20
19282;BMP180;9774;52.034;5.342;2024-03-08T13:05:36;100862.00;;;17.20
19282;BMP180;9774;52.034;5.342;2024-03-08T13:08:06;100867.00;;;17.30
19282;BMP180;9774;52.034;5.342;2024-03-08T13:10:38;100864.00;;;17.30
19282;BMP180;9774;52.034;5.342;2024-03-08T13:13:05;100862.00;;;17.40
19282;BMP180;9774;52.034;5.342;2024-03-08T13:15:33;100864.00;;;17.40
19282;BMP180;9774;52.034;5.342;2024-03-08T13:18:01;100853.00;;;17.50
19282;BMP180;9774;52.034;5.342;2024-03-08T13:20:29;100852.00;;;17.60
19282;BMP180;9774;52.034;5.342;2024-03-08T13:22:56;100849.00;;;17.70
19282;BMP180;9774;52.034;5.342;2024-03-08T13:25:25;100827.00;;;17.90
19282;BMP180;9774;52.034;5.342;2024-03-08T13:27:52;100837.00;;;18.10
19282;BMP180;9774;52.034;5.342;2024-03-08T13:30:22;100838.00;;;18.40
19282;BMP180;9774;52.034;5.342;2024-03-08T13:32:53;100835.00;;;18.80
19282;BMP180;9774;52.034;5.342;2024-03-08T13:35:20;100834.00;;;19.40
19282;BMP180;9774;52.034;5.342;2024-03-08T13:37:51;100848.00;;;20.00
19282;BMP180;9774;52.034;5.342;2024-03-08T13:40:18;100846.00;;;20.60
19282;BMP180;9774;52.034;5.342;2024-03-08T13:42:46;100835.00;;;21.10
19282;BMP180;9774;52.034;5.342;2024-03-08T13:45:15;100838.00;;;21.60
19282;BMP180;9774;52.034;5.342;2024-03-08T13:47:43;100837.00;;;22.10
19282;BMP180;9774;52.034;5.342;2024-03-08T13:50:13;100830.00;;;22.50
19282;BMP180;9774;52.034;5.342;2024-03-08T13:52:47;100825.00;;;23.00
19282;BMP180;9774;52.034;5.342;2024-03-08T13:55:17;100811.00;;;23.40
19282;BMP180;9774;52.034;5.342;2024-03-08T13:57:44;100813.00;;;23.80
19282;BMP180;9774;52.034;5.342;2024-03-08T14:00:13;100808.00;;;24.20
19282;BMP180;9774;52.034;5.342;2024-03-08T14:02:41;100799.00;;;24.60
19282;BMP180;9774;52.034;5.342;2024-03-08T14:05:09;100811.00;;;24.90
19282;BMP180;9774;52.034;5.342;2024-03-08T14:07:39;100799.00;;;25.10
19282;BMP180;9774;52.034;5.342;2024-03-08T14:10:07;100810.00;;;25.30
19282;BMP180;9774;52.034;5.342;2024-03-08T14:12:35;100799.00;;;25.50
19282;BMP180;9774;52.034;5.342;2024-03-08T14:15:05;100796.00;;;25.70
19282;BMP180;9774;52.034;5.342;2024-03-08T14:17:32;100786.00;;;25.90
19282;BMP180;9774;52.034;5.342;2024-03-08T14:19:59;100790.00;;;26.10
19282;BMP180;9774;52.034;5.342;2024-03-08T14:22:26;100779.00;;;26.40
19282;BMP180;9774;52.034;5.342;2024-03-08T14:24:54;100783.00;;;26.50
19282;BMP180;9774;52.034;5.342;2024-03-08T14:27:22;100782.00;;;26.70